Nippon Maru — 3FDA7 — position and weather

sailwx.info

Track history (hours):
 
Tides and Currents Weather Stations Pressure Air Temp Water Temp Dewpoint Dewpoint Depression Visibility Wind Speed Wind Dir Waves Ship Positions

Nippon Maru

Last reported at 2014-Jul-03 02:32 UTC. Time now 2014-Jul-29 12:47 UTC.
Position N 35°48' E 141°08'.
Warning: this ship's position is 26 days out of date.

Length 190 m; draft 11.9 m.

Type: Cargo ship. MMSI: 353814000.

Date/timePositionNaut miles runAvg speedWind from/ knotsBaromVisibWave heightAir tempDewpointWater temp
2014-Jul-03 02:32N 35°48' E 141°08'1713.0
2014-Jul-03 01:11N 35°31' E 141°00'913.4
2014-Jul-03 00:33N 35°24' E 140°55'1413.8
2014-Jul-02 23:32N 35°11' E 140°48'2813.7
2014-Jul-02 21:32N 34°53' E 140°23'1414.1
2014-Jul-02 20:33N 34°48' E 140°07'1413.8
2014-Jul-02 19:33N 34°44' E 139°51'1312.7
2014-Jul-02 18:33N 34°40' E 139°36'1312.5
2014-Jul-02 17:31N 34°37' E 139°21'  
Track history (hours):
 
Tides and Currents Weather Stations Pressure Air Temp Water Temp Dewpoint Dewpoint Depression Visibility Wind Speed Wind Dir Waves Ship Positions

Nippon Maru

Last reported at 2014-Jul-03 02:32 UTC. Time now 2014-Jul-29 12:47 UTC.
Position N 35°48' E 141°08'.
Warning: this ship's position is 26 days out of date.

Length 190 m; draft 11.9 m.

Type: Cargo ship. MMSI: 353814000.

Date/timePositionNaut miles runAvg speedWind from/ knotsBaromVisibWave heightAir tempDewpointWater temp
2014-Jul-03 02:32N 35°48' E 141°08'1713.0
2014-Jul-03 01:11N 35°31' E 141°00'913.4
2014-Jul-03 00:33N 35°24' E 140°55'1413.8
2014-Jul-02 23:32N 35°11' E 140°48'2813.7
2014-Jul-02 21:32N 34°53' E 140°23'1414.1
2014-Jul-02 20:33N 34°48' E 140°07'1413.8
2014-Jul-02 19:33N 34°44' E 139°51'1312.7
2014-Jul-02 18:33N 34°40' E 139°36'1312.5
2014-Jul-02 17:31N 34°37' E 139°21'  

Dump ship's entire track history